sensor_id;sensor_type;location;lat;lon;timestamp;temperature;humidity
814;DHT22;389;48.710;9.392;2023-12-20T00:00:51;7.00;99.10
814;DHT22;389;48.710;9.392;2023-12-20T00:03:17;7.10;99.10
814;DHT22;389;48.710;9.392;2023-12-20T00:05:42;7.10;99.20
814;DHT22;389;48.710;9.392;2023-12-20T00:08:08;7.20;99.20
814;DHT22;389;48.710;9.392;2023-12-20T00:10:33;7.20;99.20
814;DHT22;389;48.710;9.392;2023-12-20T00:12:59;7.20;99.30
814;DHT22;389;48.710;9.392;2023-12-20T00:15:24;7.20;99.30
814;DHT22;389;48.710;9.392;2023-12-20T00:17:50;7.20;99.40
814;DHT22;389;48.710;9.392;2023-12-20T00:20:16;7.30;99.50
814;DHT22;389;48.710;9.392;2023-12-20T00:22:41;7.30;99.60
814;DHT22;389;48.710;9.392;2023-12-20T00:25:07;7.30;99.60
814;DHT22;389;48.710;9.392;2023-12-20T00:27:33;7.30;99.60
814;DHT22;389;48.710;9.392;2023-12-20T00:29:58;7.30;99.90
814;DHT22;389;48.710;9.392;2023-12-20T00:32:24;7.40;99.50
814;DHT22;389;48.710;9.392;2023-12-20T00:34:49;7.40;99.30
814;DHT22;389;48.710;9.392;2023-12-20T00:37:15;7.50;99.40
814;DHT22;389;48.710;9.392;2023-12-20T00:39:41;7.50;99.30
814;DHT22;389;48.710;9.392;2023-12-20T00:42:07;7.50;99.30
814;DHT22;389;48.710;9.392;2023-12-20T00:44:33;7.60;99.30
814;DHT22;389;48.710;9.392;2023-12-20T00:46:58;7.60;99.30
814;DHT22;389;48.710;9.392;2023-12-20T00:49:24;7.50;99.20
814;DHT22;389;48.710;9.392;2023-12-20T00:51:49;7.50;99.40
814;DHT22;389;48.710;9.392;2023-12-20T00:54:16;7.60;99.50
814;DHT22;389;48.710;9.392;2023-12-20T00:56:41;7.60;99.50
814;DHT22;389;48.710;9.392;2023-12-20T00:59:07;7.70;99.50
814;DHT22;389;48.710;9.392;2023-12-20T01:01:32;7.70;99.40
814;DHT22;389;48.710;9.392;2023-12-20T01:03:58;7.70;99.40
814;DHT22;389;48.710;9.392;2023-12-20T01:06:24;7.80;99.50
814;DHT22;389;48.710;9.392;2023-12-20T01:08:49;7.80;99.50
814;DHT22;389;48.710;9.392;2023-12-20T01:11:15;7.90;99.40
814;DHT22;389;48.710;9.392;2023-12-20T01:13:41;7.90;99.40
814;DHT22;389;48.710;9.392;2023-12-20T01:16:10;7.90;99.30
814;DHT22;389;48.710;9.392;2023-12-20T01:18:35;8.00;99.30
814;DHT22;389;48.710;9.392;2023-12-20T01:21:02;8.00;99.30
814;DHT22;389;48.710;9.392;2023-12-20T01:23:28;8.00;99.40
814;DHT22;389;48.710;9.392;2023-12-20T01:25:54;8.00;99.40
814;DHT22;389;48.710;9.392;2023-12-20T01:28:20;8.10;99.50
814;DHT22;389;48.710;9.392;2023-12-20T01:30:45;8.10;99.50
814;DHT22;389;48.710;9.392;2023-12-20T01:33:11;8.10;99.60
814;DHT22;389;48.710;9.392;2023-12-20T01:35:36;8.10;99.80
814;DHT22;389;48.710;9.392;2023-12-20T01:38:02;8.10;99.90
814;DHT22;389;48.710;9.392;2023-12-20T01:40:28;8.00;99.90
814;DHT22;389;48.710;9.392;2023-12-20T01:43:01;8.00;99.90
814;DHT22;389;48.710;9.392;2023-12-20T01:45:26;8.00;99.90
814;DHT22;389;48.710;9.392;2023-12-20T01:47:53;7.90;99.90
814;DHT22;389;48.710;9.392;2023-12-20T01:50:19;7.90;99.90
814;DHT22;389;48.710;9.392;2023-12-20T01:52:45;7.90;99.90
814;DHT22;389;48.710;9.392;2023-12-20T01:55:10;7.90;99.90
814;DHT22;389;48.710;9.392;2023-12-20T01:57:41;7.90;99.90
814;DHT22;389;48.710;9.392;2023-12-20T02:00:07;7.90;99.90
814;DHT22;389;48.710;9.392;2023-12-20T02:02:37;7.90;99.90
814;DHT22;389;48.710;9.392;2023-12-20T02:05:05;7.80;99.90
814;DHT22;389;48.710;9.392;2023-12-20T02:07:31;7.80;99.90
814;DHT22;389;48.710;9.392;2023-12-20T02:09:57;7.80;99.90
814;DHT22;389;48.710;9.392;2023-12-20T02:12:22;7.80;99.90
814;DHT22;389;48.710;9.392;2023-12-20T02:14:49;7.70;99.90
814;DHT22;389;48.710;9.392;2023-12-20T02:17:15;7.70;99.90
814;DHT22;389;48.710;9.392;2023-12-20T02:19:41;7.70;99.90
814;DHT22;389;48.710;9.392;2023-12-20T02:22:10;7.70;99.90
814;DHT22;389;48.710;9.392;2023-12-20T02:24:36;7.70;99.90
814;DHT22;389;48.710;9.392;2023-12-20T02:27:02;7.70;99.90
814;DHT22;389;48.710;9.392;2023-12-20T02:29:28;7.60;99.90
814;DHT22;389;48.710;9.392;2023-12-20T02:31:53;7.60;99.90
814;DHT22;389;48.710;9.392;2023-12-20T02:34:19;7.60;99.90
814;DHT22;389;48.710;9.392;2023-12-20T02:36:44;7.60;99.90
814;DHT22;389;48.710;9.392;2023-12-20T02:39:10;7.60;99.90
814;DHT22;389;48.710;9.392;2023-12-20T02:41:35;7.60;99.90
814;DHT22;389;48.710;9.392;2023-12-20T02:44:01;7.60;99.90
814;DHT22;389;48.710;9.392;2023-12-20T02:46:27;7.50;99.90
814;DHT22;389;48.710;9.392;2023-12-20T02:48:53;7.50;99.90
814;DHT22;389;48.710;9.392;2023-12-20T02:51:18;7.60;99.90
814;DHT22;389;48.710;9.392;2023-12-20T02:53:44;7.60;99.90
814;DHT22;389;48.710;9.392;2023-12-20T02:56:09;7.60;99.90
814;DHT22;389;48.710;9.392;2023-12-20T02:58:35;7.60;99.90
814;DHT22;389;48.710;9.392;2023-12-20T03:01:01;7.60;99.90
814;DHT22;389;48.710;9.392;2023-12-20T03:03:26;7.60;99.90
814;DHT22;389;48.710;9.392;2023-12-20T03:05:52;7.60;99.90
814;DHT22;389;48.710;9.392;2023-12-20T03:08:17;7.60;99.90
814;DHT22;389;48.710;9.392;2023-12-20T03:10:43;7.60;99.90
814;DHT22;389;48.710;9.392;2023-12-20T03:13:09;7.70;99.90
814;DHT22;389;48.710;9.392;2023-12-20T03:15:34;7.60;99.90
814;DHT22;389;48.710;9.392;2023-12-20T03:18:00;7.70;99.90
814;DHT22;389;48.710;9.392;2023-12-20T03:20:25;7.70;99.90
814;DHT22;389;48.710;9.392;2023-12-20T03:22:51;7.70;99.90
814;DHT22;389;48.710;9.392;2023-12-20T03:25:17;7.70;99.90
814;DHT22;389;48.710;9.392;2023-12-20T03:27:43;7.70;99.90
814;DHT22;389;48.710;9.392;2023-12-20T03:30:08;7.70;99.90
814;DHT22;389;48.710;9.392;2023-12-20T03:32:34;7.60;99.90
814;DHT22;389;48.710;9.392;2023-12-20T03:35:00;7.60;99.90
814;DHT22;389;48.710;9.392;2023-12-20T03:37:25;7.60;99.90
814;DHT22;389;48.710;9.392;2023-12-20T03:39:51;7.60;99.90
814;DHT22;389;48.710;9.392;2023-12-20T03:42:16;7.60;99.90
814;DHT22;389;48.710;9.392;2023-12-20T03:44:42;7.60;99.90
814;DHT22;389;48.710;9.392;2023-12-20T03:47:07;7.60;99.90
814;DHT22;389;48.710;9.392;2023-12-20T03:49:33;7.60;99.90
814;DHT22;389;48.710;9.392;2023-12-20T03:51:59;7.60;99.90
814;DHT22;389;48.710;9.392;2023-12-20T03:54:24;7.50;99.90
814;DHT22;389;48.710;9.392;2023-12-20T03:56:50;7.50;99.90
814;DHT22;389;48.710;9.392;2023-12-20T03:59:17;7.50;99.90
814;DHT22;389;48.710;9.392;2023-12-20T04:01:43;7.50;99.90
814;DHT22;389;48.710;9.392;2023-12-20T04:04:10;7.50;99.90
814;DHT22;389;48.710;9.392;2023-12-20T04:06:36;7.50;99.90
814;DHT22;389;48.710;9.392;2023-12-20T04:09:01;7.50;99.90
814;DHT22;389;48.710;9.392;2023-12-20T04:11:27;7.50;99.90
814;DHT22;389;48.710;9.392;2023-12-20T04:13:52;7.50;99.90
814;DHT22;389;48.710;9.392;2023-12-20T04:16:18;7.50;99.90
814;DHT22;389;48.710;9.392;2023-12-20T04:18:44;7.50;99.90
814;DHT22;389;48.710;9.392;2023-12-20T04:21:09;7.50;99.90
814;DHT22;389;48.710;9.392;2023-12-20T04:23:35;7.50;99.90
814;DHT22;389;48.710;9.392;2023-12-20T04:26:00;7.50;99.90
814;DHT22;389;48.710;9.392;2023-12-20T04:28:26;7.50;99.90
814;DHT22;389;48.710;9.392;2023-12-20T04:30:51;7.50;99.90
814;DHT22;389;48.710;9.392;2023-12-20T04:33:17;7.50;99.90
814;DHT22;389;48.710;9.392;2023-12-20T04:35:42;7.50;99.90
814;DHT22;389;48.710;9.392;2023-12-20T04:38:09;7.50;99.90
814;DHT22;389;48.710;9.392;2023-12-20T04:40:34;7.50;99.90
814;DHT22;389;48.710;9.392;2023-12-20T04:43:00;7.50;99.90
814;DHT22;389;48.710;9.392;2023-12-20T04:45:25;7.60;99.90
814;DHT22;389;48.710;9.392;2023-12-20T04:47:51;7.50;99.90
814;DHT22;389;48.710;9.392;2023-12-20T04:50:17;7.50;99.90
814;DHT22;389;48.710;9.392;2023-12-20T04:52:43;7.50;99.90
814;DHT22;389;48.710;9.392;2023-12-20T04:55:08;7.50;99.90
814;DHT22;389;48.710;9.392;2023-12-20T04:57:35;7.50;99.90
814;DHT22;389;48.710;9.392;2023-12-20T05:00:00;7.50;99.90
814;DHT22;389;48.710;9.392;2023-12-20T05:02:26;7.60;99.90
814;DHT22;389;48.710;9.392;2023-12-20T05:04:51;7.50;99.90
814;DHT22;389;48.710;9.392;2023-12-20T05:07:17;7.50;99.90
814;DHT22;389;48.710;9.392;2023-12-20T05:09:42;7.50;99.90
814;DHT22;389;48.710;9.392;2023-12-20T05:12:08;7.50;99.90
814;DHT22;389;48.710;9.392;2023-12-20T05:14:33;7.50;99.90
814;DHT22;389;48.710;9.392;2023-12-20T05:16:59;7.50;99.90
814;DHT22;389;48.710;9.392;2023-12-20T05:19:25;7.50;99.90
814;DHT22;389;48.710;9.392;2023-12-20T05:21:50;7.50;99.90
814;DHT22;389;48.710;9.392;2023-12-20T05:24:16;7.50;99.90
814;DHT22;389;48.710;9.392;2023-12-20T05:26:41;7.40;99.90
814;DHT22;389;48.710;9.392;2023-12-20T05:29:07;7.40;99.90
814;DHT22;389;48.710;9.392;2023-12-20T05:31:32;7.40;99.90
814;DHT22;389;48.710;9.392;2023-12-20T05:33:58;7.40;99.90
814;DHT22;389;48.710;9.392;2023-12-20T05:36:23;7.40;99.90
814;DHT22;389;48.710;9.392;2023-12-20T05:38:49;7.40;99.90
814;DHT22;389;48.710;9.392;2023-12-20T05:41:14;7.40;99.90
814;DHT22;389;48.710;9.392;2023-12-20T05:43:40;7.40;99.90
814;DHT22;389;48.710;9.392;2023-12-20T05:46:05;7.40;99.90
814;DHT22;389;48.710;9.392;2023-12-20T05:48:31;7.30;99.90
814;DHT22;389;48.710;9.392;2023-12-20T05:50:57;7.30;99.90
814;DHT22;389;48.710;9.392;2023-12-20T05:53:23;7.30;99.90
814;DHT22;389;48.710;9.392;2023-12-20T05:55:48;7.30;99.90
814;DHT22;389;48.710;9.392;2023-12-20T05:58:14;7.30;99.90
814;DHT22;389;48.710;9.392;2023-12-20T06:00:39;7.30;99.90
814;DHT22;389;48.710;9.392;2023-12-20T06:03:05;7.30;99.90
814;DHT22;389;48.710;9.392;2023-12-20T06:05:31;7.20;99.90
814;DHT22;389;48.710;9.392;2023-12-20T06:07:56;7.20;99.90
814;DHT22;389;48.710;9.392;2023-12-20T06:10:27;7.30;99.90
814;DHT22;389;48.710;9.392;2023-12-20T06:12:52;7.30;99.90
814;DHT22;389;48.710;9.392;2023-12-20T06:15:18;7.30;99.90
814;DHT22;389;48.710;9.392;2023-12-20T06:17:43;7.30;99.90
814;DHT22;389;48.710;9.392;2023-12-20T06:20:09;7.30;99.90
814;DHT22;389;48.710;9.392;2023-12-20T06:22:36;7.30;99.90
814;DHT22;389;48.710;9.392;2023-12-20T06:25:02;7.30;99.90
814;DHT22;389;48.710;9.392;2023-12-20T06:27:28;7.30;99.90
814;DHT22;389;48.710;9.392;2023-12-20T06:29:54;7.30;99.90
814;DHT22;389;48.710;9.392;2023-12-20T06:32:20;7.30;99.90
814;DHT22;389;48.710;9.392;2023-12-20T06:34:45;7.30;99.90
814;DHT22;389;48.710;9.392;2023-12-20T06:37:12;7.30;99.90
814;DHT22;389;48.710;9.392;2023-12-20T06:39:37;7.30;99.90
814;DHT22;389;48.710;9.392;2023-12-20T06:42:03;7.30;99.90
814;DHT22;389;48.710;9.392;2023-12-20T06:44:28;7.30;99.90
814;DHT22;389;48.710;9.392;2023-12-20T06:46:54;7.30;99.90
814;DHT22;389;48.710;9.392;2023-12-20T06:49:19;7.30;99.90
814;DHT22;389;48.710;9.392;2023-12-20T06:51:45;7.30;99.90
814;DHT22;389;48.710;9.392;2023-12-20T06:54:11;7.30;99.90
814;DHT22;389;48.710;9.392;2023-12-20T06:56:36;7.30;99.90
814;DHT22;389;48.710;9.392;2023-12-20T06:59:02;7.30;99.90
814;DHT22;389;48.710;9.392;2023-12-20T07:01:27;7.30;99.90
814;DHT22;389;48.710;9.392;2023-12-20T07:03:53;7.30;99.90
814;DHT22;389;48.710;9.392;2023-12-20T07:06:18;7.40;99.90
814;DHT22;389;48.710;9.392;2023-12-20T07:08:44;7.40;99.90
814;DHT22;389;48.710;9.392;2023-12-20T07:11:10;7.30;99.90
814;DHT22;389;48.710;9.392;2023-12-20T07:13:35;7.40;99.90
814;DHT22;389;48.710;9.392;2023-12-20T07:16:01;7.30;99.90
814;DHT22;389;48.710;9.392;2023-12-20T07:18:26;7.40;99.90
814;DHT22;389;48.710;9.392;2023-12-20T07:20:52;7.30;99.90
814;DHT22;389;48.710;9.392;2023-12-20T07:23:19;7.30;99.90
814;DHT22;389;48.710;9.392;2023-12-20T07:25:45;7.30;99.90
814;DHT22;389;48.710;9.392;2023-12-20T07:28:11;7.30;99.90
814;DHT22;389;48.710;9.392;2023-12-20T07:30:36;7.30;99.90
814;DHT22;389;48.710;9.392;2023-12-20T07:33:05;7.30;99.90
814;DHT22;389;48.710;9.392;2023-12-20T07:35:33;7.20;99.90
814;DHT22;389;48.710;9.392;2023-12-20T07:37:58;7.30;99.90
814;DHT22;389;48.710;9.392;2023-12-20T07:40:24;7.30;99.90
814;DHT22;389;48.710;9.392;2023-12-20T07:42:49;7.30;99.90
814;DHT22;389;48.710;9.392;2023-12-20T07:45:15;7.30;99.90
814;DHT22;389;48.710;9.392;2023-12-20T07:47:41;7.30;99.90
814;DHT22;389;48.710;9.392;2023-12-20T07:50:06;7.30;99.90
814;DHT22;389;48.710;9.392;2023-12-20T07:52:32;7.30;99.90
814;DHT22;389;48.710;9.392;2023-12-20T07:54:57;7.30;99.90
814;DHT22;389;48.710;9.392;2023-12-20T07:57:23;7.30;99.90
814;DHT22;389;48.710;9.392;2023-12-20T07:59:49;7.30;99.90
814;DHT22;389;48.710;9.392;2023-12-20T08:02:14;7.30;99.90
814;DHT22;389;48.710;9.392;2023-12-20T08:04:40;7.30;99.90
814;DHT22;389;48.710;9.392;2023-12-20T08:07:06;7.30;99.90
814;DHT22;389;48.710;9.392;2023-12-20T08:09:32;7.30;99.90
814;DHT22;389;48.710;9.392;2023-12-20T08:11:59;7.30;99.90
814;DHT22;389;48.710;9.392;2023-12-20T08:14:25;7.30;99.90
814;DHT22;389;48.710;9.392;2023-12-20T08:16:50;7.30;99.90
814;DHT22;389;48.710;9.392;2023-12-20T08:19:16;7.30;99.90
814;DHT22;389;48.710;9.392;2023-12-20T08:21:42;7.30;99.90
814;DHT22;389;48.710;9.392;2023-12-20T08:24:08;7.40;99.90
814;DHT22;389;48.710;9.392;2023-12-20T08:26:33;7.40;99.90
814;DHT22;389;48.710;9.392;2023-12-20T08:28:59;7.40;99.90
814;DHT22;389;48.710;9.392;2023-12-20T08:31:25;7.40;99.90
814;DHT22;389;48.710;9.392;2023-12-20T08:33:51;7.50;99.90
814;DHT22;389;48.710;9.392;2023-12-20T08:36:19;7.50;99.90
814;DHT22;389;48.710;9.392;2023-12-20T08:38:46;7.50;99.90
814;DHT22;389;48.710;9.392;2023-12-20T08:41:12;7.60;99.90
814;DHT22;389;48.710;9.392;2023-12-20T08:43:38;7.60;99.90
814;DHT22;389;48.710;9.392;2023-12-20T08:46:05;7.60;99.90
814;DHT22;389;48.710;9.392;2023-12-20T08:48:31;7.60;99.90
814;DHT22;389;48.710;9.392;2023-12-20T08:50:57;7.70;99.90
814;DHT22;389;48.710;9.392;2023-12-20T08:53:22;7.70;99.90
814;DHT22;389;48.710;9.392;2023-12-20T08:55:48;7.70;99.90
814;DHT22;389;48.710;9.392;2023-12-20T08:58:14;7.70;99.90
814;DHT22;389;48.710;9.392;2023-12-20T09:00:39;7.80;99.90
814;DHT22;389;48.710;9.392;2023-12-20T09:03:05;7.80;99.90
814;DHT22;389;48.710;9.392;2023-12-20T09:05:30;7.70;99.70
814;DHT22;389;48.710;9.392;2023-12-20T09:07:56;7.80;99.60
814;DHT22;389;48.710;9.392;2023-12-20T09:10:22;7.70;99.40
814;DHT22;389;48.710;9.392;2023-12-20T09:12:49;7.70;99.40
814;DHT22;389;48.710;9.392;2023-12-20T09:15:15;7.70;99.30
814;DHT22;389;48.710;9.392;2023-12-20T09:17:40;7.70;99.40
814;DHT22;389;48.710;9.392;2023-12-20T09:20:07;7.60;99.00
814;DHT22;389;48.710;9.392;2023-12-20T09:22:33;7.50;99.00
814;DHT22;389;48.710;9.392;2023-12-20T09:24:59;7.40;99.00
814;DHT22;389;48.710;9.392;2023-12-20T09:27:25;7.30;99.10
814;DHT22;389;48.710;9.392;2023-12-20T09:29:51;7.20;99.20
814;DHT22;389;48.710;9.392;2023-12-20T09:32:18;7.10;99.40
814;DHT22;389;48.710;9.392;2023-12-20T09:34:45;7.10;99.50
814;DHT22;389;48.710;9.392;2023-12-20T09:37:11;7.00;99.60
814;DHT22;389;48.710;9.392;2023-12-20T09:39:37;7.00;99.90
814;DHT22;389;48.710;9.392;2023-12-20T09:42:04;6.90;99.90
814;DHT22;389;48.710;9.392;2023-12-20T09:44:30;6.90;99.90
814;DHT22;389;48.710;9.392;2023-12-20T09:46:57;6.80;99.90
814;DHT22;389;48.710;9.392;2023-12-20T09:49:22;6.80;99.90
814;DHT22;389;48.710;9.392;2023-12-20T09:51:50;6.80;99.90
814;DHT22;389;48.710;9.392;2023-12-20T09:54:21;6.80;99.90
814;DHT22;389;48.710;9.392;2023-12-20T09:56:47;6.80;99.90
814;DHT22;389;48.710;9.392;2023-12-20T09:59:13;6.80;99.90
814;DHT22;389;48.710;9.392;2023-12-20T10:01:40;6.80;99.90
814;DHT22;389;48.710;9.392;2023-12-20T10:04:07;6.80;99.90
814;DHT22;389;48.710;9.392;2023-12-20T10:06:35;6.70;99.60
814;DHT22;389;48.710;9.392;2023-12-20T10:09:01;6.70;99.60
814;DHT22;389;48.710;9.392;2023-12-20T10:11:27;6.60;99.60
814;DHT22;389;48.710;9.392;2023-12-20T10:13:59;6.70;99.60
814;DHT22;389;48.710;9.392;2023-12-20T10:16:26;6.70;99.60
814;DHT22;389;48.710;9.392;2023-12-20T10:18:53;6.80;99.50
814;DHT22;389;48.710;9.392;2023-12-20T10:21:19;6.80;99.20
814;DHT22;389;48.710;9.392;2023-12-20T10:23:45;6.90;99.30
814;DHT22;389;48.710;9.392;2023-12-20T10:26:22;7.00;99.40
814;DHT22;389;48.710;9.392;2023-12-20T10:28:54;7.00;98.40
814;DHT22;389;48.710;9.392;2023-12-20T10:31:33;7.10;97.30
814;DHT22;389;48.710;9.392;2023-12-20T10:34:00;7.20;96.70
814;DHT22;389;48.710;9.392;2023-12-20T10:36:27;7.30;96.30
814;DHT22;389;48.710;9.392;2023-12-20T10:38:54;7.40;96.20
814;DHT22;389;48.710;9.392;2023-12-20T10:41:26;7.40;95.10
814;DHT22;389;48.710;9.392;2023-12-20T10:43:55;7.50;94.40
814;DHT22;389;48.710;9.392;2023-12-20T10:46:21;7.60;94.10
814;DHT22;389;48.710;9.392;2023-12-20T10:48:48;7.70;94.10
814;DHT22;389;48.710;9.392;2023-12-20T10:51:17;7.90;93.90
814;DHT22;389;48.710;9.392;2023-12-20T10:53:44;8.10;93.50
814;DHT22;389;48.710;9.392;2023-12-20T10:56:15;8.30;93.80
814;DHT22;389;48.710;9.392;2023-12-20T10:58:42;8.50;93.40
814;DHT22;389;48.710;9.392;2023-12-20T11:01:16;8.70;93.50
814;DHT22;389;48.710;9.392;2023-12-20T11:03:49;8.90;93.10
814;DHT22;389;48.710;9.392;2023-12-20T11:06:26;9.00;92.80
814;DHT22;389;48.710;9.392;2023-12-20T11:09:16;9.10;92.20
814;DHT22;389;48.710;9.392;2023-12-20T11:12:06;9.00;92.00
814;DHT22;389;48.710;9.392;2023-12-20T11:14:47;8.80;92.00
814;DHT22;389;48.710;9.392;2023-12-20T11:17:13;8.70;92.10
814;DHT22;389;48.710;9.392;2023-12-20T11:22:26;8.60;92.60
814;DHT22;389;48.710;9.392;2023-12-20T11:24:52;8.60;92.80
814;DHT22;389;48.710;9.392;2023-12-20T11:27:21;8.60;92.90
814;DHT22;389;48.710;9.392;2023-12-20T11:29:56;8.70;92.70
814;DHT22;389;48.710;9.392;2023-12-20T11:34:51;8.70;92.30
814;DHT22;389;48.710;9.392;2023-12-20T11:37:19;8.80;92.20
814;DHT22;389;48.710;9.392;2023-12-20T11:39:45;8.80;92.20
814;DHT22;389;48.710;9.392;2023-12-20T11:42:10;8.80;92.30
814;DHT22;389;48.710;9.392;2023-12-20T11:44:37;8.80;92.20
814;DHT22;389;48.710;9.392;2023-12-20T11:47:03;8.80;92.50
814;DHT22;389;48.710;9.392;2023-12-20T11:49:29;8.70;92.50
814;DHT22;389;48.710;9.392;2023-12-20T11:51:56;8.80;92.80
814;DHT22;389;48.710;9.392;2023-12-20T11:54:22;8.70;92.80
814;DHT22;389;48.710;9.392;2023-12-20T11:56:48;8.70;92.90
814;DHT22;389;48.710;9.392;2023-12-20T11:59:13;8.70;93.00
814;DHT22;389;48.710;9.392;2023-12-20T12:01:39;8.70;92.80
814;DHT22;389;48.710;9.392;2023-12-20T12:04:05;8.70;92.50
814;DHT22;389;48.710;9.392;2023-12-20T12:06:32;8.70;91.40
814;DHT22;389;48.710;9.392;2023-12-20T12:08:57;8.60;91.40
814;DHT22;389;48.710;9.392;2023-12-20T12:11:23;8.60;91.10
814;DHT22;389;48.710;9.392;2023-12-20T12:13:49;8.60;91.60
814;DHT22;389;48.710;9.392;2023-12-20T12:16:18;8.60;91.70
814;DHT22;389;48.710;9.392;2023-12-20T12:18:55;8.60;91.50
814;DHT22;389;48.710;9.392;2023-12-20T12:21:21;8.60;91.50
814;DHT22;389;48.710;9.392;2023-12-20T12:23:46;8.60;91.50
814;DHT22;389;48.710;9.392;2023-12-20T12:26:12;8.60;91.40
814;DHT22;389;48.710;9.392;2023-12-20T12:28:40;8.60;91.80
814;DHT22;389;48.710;9.392;2023-12-20T12:31:07;8.60;91.40
814;DHT22;389;48.710;9.392;2023-12-20T12:33:33;8.50;91.20
814;DHT22;389;48.710;9.392;2023-12-20T12:36:02;8.50;91.50
814;DHT22;389;48.710;9.392;2023-12-20T12:38:30;8.40;91.70
814;DHT22;389;48.710;9.392;2023-12-20T12:40:56;8.30;92.50
814;DHT22;389;48.710;9.392;2023-12-20T12:43:22;8.20;92.00
814;DHT22;389;48.710;9.392;2023-12-20T12:45:49;8.20;92.20
814;DHT22;389;48.710;9.392;2023-12-20T12:48:15;8.20;92.50
814;DHT22;389;48.710;9.392;2023-12-20T12:50:40;8.20;92.60
814;DHT22;389;48.710;9.392;2023-12-20T12:53:06;8.20;92.20
814;DHT22;389;48.710;9.392;2023-12-20T12:55:32;8.20;92.00
814;DHT22;389;48.710;9.392;2023-12-20T12:57:58;8.30;92.20
814;DHT22;389;48.710;9.392;2023-12-20T13:00:23;8.30;92.10
814;DHT22;389;48.710;9.392;2023-12-20T13:02:50;8.40;91.90
814;DHT22;389;48.710;9.392;2023-12-20T13:05:15;8.40;91.40
814;DHT22;389;48.710;9.392;2023-12-20T13:07:41;8.50;91.60
814;DHT22;389;48.710;9.392;2023-12-20T13:10:10;8.60;91.80
814;DHT22;389;48.710;9.392;2023-12-20T13:12:36;8.60;91.70
814;DHT22;389;48.710;9.392;2023-12-20T13:15:02;8.60;91.50
814;DHT22;389;48.710;9.392;2023-12-20T13:17:29;8.60;91.50
814;DHT22;389;48.710;9.392;2023-12-20T13:19:55;8.60;91.50
814;DHT22;389;48.710;9.392;2023-12-20T13:22:20;8.80;91.20
814;DHT22;389;48.710;9.392;2023-12-20T13:24:46;8.60;91.20
814;DHT22;389;48.710;9.392;2023-12-20T13:27:11;8.60;90.80
814;DHT22;389;48.710;9.392;2023-12-20T13:29:37;8.60;90.80
814;DHT22;389;48.710;9.392;2023-12-20T13:32:03;8.60;90.90
814;DHT22;389;48.710;9.392;2023-12-20T13:34:29;8.60;91.10
814;DHT22;389;48.710;9.392;2023-12-20T13:36:55;8.60;91.40
814;DHT22;389;48.710;9.392;2023-12-20T13:39:20;8.60;91.60
814;DHT22;389;48.710;9.392;2023-12-20T13:41:46;8.60;91.60
814;DHT22;389;48.710;9.392;2023-12-20T13:44:12;8.60;91.50
814;DHT22;389;48.710;9.392;2023-12-20T13:46:38;8.60;91.60
814;DHT22;389;48.710;9.392;2023-12-20T13:49:04;8.60;91.40
814;DHT22;389;48.710;9.392;2023-12-20T13:51:30;8.60;91.50
814;DHT22;389;48.710;9.392;2023-12-20T13:53:56;8.60;91.60
814;DHT22;389;48.710;9.392;2023-12-20T13:56:21;8.60;91.60
814;DHT22;389;48.710;9.392;2023-12-20T13:58:48;8.60;91.70
814;DHT22;389;48.710;9.392;2023-12-20T14:01:14;8.60;91.70
814;DHT22;389;48.710;9.392;2023-12-20T14:03:40;8.60;91.70
814;DHT22;389;48.710;9.392;2023-12-20T14:06:06;8.60;91.50
814;DHT22;389;48.710;9.392;2023-12-20T14:08:32;8.60;91.40
814;DHT22;389;48.710;9.392;2023-12-20T14:10:58;8.60;91.60
814;DHT22;389;48.710;9.392;2023-12-20T14:13:23;8.50;91.60
814;DHT22;389;48.710;9.392;2023-12-20T14:15:49;8.50;91.80
814;DHT22;389;48.710;9.392;2023-12-20T14:18:15;8.40;92.10
814;DHT22;389;48.710;9.392;2023-12-20T14:20:41;8.40;91.80
814;DHT22;389;48.710;9.392;2023-12-20T14:23:08;8.50;91.80
814;DHT22;389;48.710;9.392;2023-12-20T14:25:35;8.40;91.70
814;DHT22;389;48.710;9.392;2023-12-20T14:28:03;8.40;91.70
814;DHT22;389;48.710;9.392;2023-12-20T14:30:29;8.40;91.80
814;DHT22;389;48.710;9.392;2023-12-20T14:32:54;8.40;91.90
814;DHT22;389;48.710;9.392;2023-12-20T14:35:20;8.30;91.80
814;DHT22;389;48.710;9.392;2023-12-20T14:37:45;8.30;91.70
814;DHT22;389;48.710;9.392;2023-12-20T14:40:11;8.40;91.90
814;DHT22;389;48.710;9.392;2023-12-20T14:42:44;8.30;91.90
814;DHT22;389;48.710;9.392;2023-12-20T14:45:10;8.30;91.90
814;DHT22;389;48.710;9.392;2023-12-20T14:47:54;8.30;92.00
814;DHT22;389;48.710;9.392;2023-12-20T14:50:20;8.30;91.90
814;DHT22;389;48.710;9.392;2023-12-20T14:52:47;8.40;92.10
814;DHT22;389;48.710;9.392;2023-12-20T14:55:13;8.30;92.20
814;DHT22;389;48.710;9.392;2023-12-20T14:57:38;8.20;92.20
814;DHT22;389;48.710;9.392;2023-12-20T15:00:05;8.20;92.30
814;DHT22;389;48.710;9.392;2023-12-20T15:02:30;8.10;92.50
814;DHT22;389;48.710;9.392;2023-12-20T15:04:57;8.00;92.50
814;DHT22;389;48.710;9.392;2023-12-20T15:07:22;8.00;92.60
814;DHT22;389;48.710;9.392;2023-12-20T15:09:48;8.00;92.80
814;DHT22;389;48.710;9.392;2023-12-20T15:12:14;8.00;92.90
814;DHT22;389;48.710;9.392;2023-12-20T15:14:41;7.90;93.00
814;DHT22;389;48.710;9.392;2023-12-20T15:17:06;7.90;93.20
814;DHT22;389;48.710;9.392;2023-12-20T15:19:32;7.90;93.40
814;DHT22;389;48.710;9.392;2023-12-20T15:21:58;7.80;93.50
814;DHT22;389;48.710;9.392;2023-12-20T15:24:25;7.80;93.60
814;DHT22;389;48.710;9.392;2023-12-20T15:26:54;7.70;93.70
814;DHT22;389;48.710;9.392;2023-12-20T15:29:20;7.70;94.00
814;DHT22;389;48.710;9.392;2023-12-20T15:31:46;7.70;94.20
814;DHT22;389;48.710;9.392;2023-12-20T15:34:12;7.60;94.60
814;DHT22;389;48.710;9.392;2023-12-20T15:36:39;7.60;94.50
814;DHT22;389;48.710;9.392;2023-12-20T15:39:05;7.50;94.60
814;DHT22;389;48.710;9.392;2023-12-20T15:41:33;7.50;94.80
814;DHT22;389;48.710;9.392;2023-12-20T15:43:59;7.60;95.00
814;DHT22;389;48.710;9.392;2023-12-20T15:46:25;7.40;95.10
814;DHT22;389;48.710;9.392;2023-12-20T15:48:50;7.40;95.30
814;DHT22;389;48.710;9.392;2023-12-20T15:51:20;7.40;95.40
814;DHT22;389;48.710;9.392;2023-12-20T15:53:46;7.40;95.50
814;DHT22;389;48.710;9.392;2023-12-20T15:56:11;7.30;95.60
814;DHT22;389;48.710;9.392;2023-12-20T15:58:37;7.30;95.70
814;DHT22;389;48.710;9.392;2023-12-20T16:01:03;7.30;95.80
814;DHT22;389;48.710;9.392;2023-12-20T16:03:29;7.20;95.90
814;DHT22;389;48.710;9.392;2023-12-20T16:05:54;7.20;96.00
814;DHT22;389;48.710;9.392;2023-12-20T16:08:20;7.20;96.00
814;DHT22;389;48.710;9.392;2023-12-20T16:10:46;7.20;96.10
814;DHT22;389;48.710;9.392;2023-12-20T16:13:11;7.20;96.20
814;DHT22;389;48.710;9.392;2023-12-20T16:15:37;7.20;96.30
814;DHT22;389;48.710;9.392;2023-12-20T16:18:03;7.20;96.30
814;DHT22;389;48.710;9.392;2023-12-20T16:20:29;7.10;96.40
814;DHT22;389;48.710;9.392;2023-12-20T16:22:55;7.10;96.40
814;DHT22;389;48.710;9.392;2023-12-20T16:25:21;7.10;96.40
814;DHT22;389;48.710;9.392;2023-12-20T16:27:47;7.20;96.40
814;DHT22;389;48.710;9.392;2023-12-20T16:30:13;7.10;96.50
814;DHT22;389;48.710;9.392;2023-12-20T16:32:39;7.10;96.50
814;DHT22;389;48.710;9.392;2023-12-20T16:35:05;7.10;96.50
814;DHT22;389;48.710;9.392;2023-12-20T16:37:30;7.10;96.60
814;DHT22;389;48.710;9.392;2023-12-20T16:39:56;7.20;96.80
814;DHT22;389;48.710;9.392;2023-12-20T16:48:26;7.10;97.10
814;DHT22;389;48.710;9.392;2023-12-20T16:50:52;7.10;97.00
814;DHT22;389;48.710;9.392;2023-12-20T16:53:17;7.20;97.10
814;DHT22;389;48.710;9.392;2023-12-20T16:55:43;7.10;97.00